createdAt,value
2023-04-12T00:01:08.375Z,1.00
2023-04-12T00:03:35.373Z,99.90
2023-04-12T00:06:03.461Z,99.90
2023-04-12T00:08:33.320Z,99.90
2023-04-12T00:11:00.906Z,99.90
2023-04-12T00:13:28.376Z,1.00
2023-04-12T00:15:55.419Z,1.00
2023-04-12T00:18:25.423Z,1.00
2023-04-12T00:20:53.043Z,1.00
2023-04-12T00:23:20.683Z,1.00
2023-04-12T00:25:47.743Z,1.00
2023-04-12T00:28:15.950Z,1.00
2023-04-12T00:30:43.100Z,1.00
2023-04-12T00:33:09.922Z,1.00
2023-04-12T00:35:36.744Z,1.00
2023-04-12T00:38:06.202Z,1.00
2023-04-12T00:40:33.164Z,1.00
2023-04-12T00:43:00.613Z,1.00
2023-04-12T00:45:27.567Z,1.00
2023-04-12T00:47:55.054Z,1.00
2023-04-12T00:50:23.222Z,1.00
2023-04-12T00:52:52.023Z,1.00
2023-04-12T00:55:18.980Z,1.00
2023-04-12T00:57:46.805Z,31.30
2023-04-12T01:00:14.035Z,64.80
2023-04-12T01:02:42.627Z,92.40
2023-04-12T01:05:14.575Z,31.30
2023-04-12T01:08:07.678Z,1.00
2023-04-12T01:10:34.782Z,32.40
2023-04-12T01:13:26.458Z,85.10
2023-04-12T01:16:41.250Z,31.40
2023-04-12T01:19:59.366Z,99.90
2023-04-12T01:22:30.090Z,99.90
2023-04-12T01:25:24.158Z,99.90
2023-04-12T01:27:56.888Z,99.90
2023-04-12T01:30:27.295Z,99.90
2023-04-12T01:32:56.165Z,99.90
2023-04-12T01:35:26.760Z,99.90
2023-04-12T01:37:53.646Z,99.90
2023-04-12T01:40:20.930Z,99.90
2023-04-12T01:42:47.722Z,99.90
2023-04-12T01:45:14.458Z,99.90
2023-04-12T01:47:41.305Z,1.00
2023-04-12T01:50:11.012Z,1.00
2023-04-12T01:52:42.383Z,99.90
2023-04-12T01:55:10.356Z,1.00
2023-04-12T01:57:37.763Z,99.90
2023-04-12T02:00:08.051Z,99.90
2023-04-12T02:02:36.655Z,99.90
2023-04-12T02:05:04.887Z,1.00
2023-04-12T02:07:31.634Z,1.00
2023-04-12T02:09:58.405Z,1.00
2023-04-12T02:12:25.162Z,1.00
2023-04-12T02:14:52.197Z,1.00
2023-04-12T02:17:19.995Z,1.00
2023-04-12T02:19:47.418Z,1.00
2023-04-12T02:22:14.271Z,1.00
2023-04-12T02:24:41.587Z,1.00
2023-04-12T02:27:08.359Z,1.00
2023-04-12T02:29:35.173Z,1.00
2023-04-12T02:32:01.953Z,1.00
2023-04-12T02:34:34.086Z,7.80
2023-04-12T02:37:00.931Z,79.60
2023-04-12T02:39:29.200Z,12.70
2023-04-12T02:41:57.009Z,27.60
2023-04-12T02:44:23.834Z,1.00
2023-04-12T02:46:50.679Z,12.30
2023-04-12T02:49:17.425Z,99.90
2023-04-12T02:51:44.594Z,74.20
2023-04-12T02:54:11.384Z,59.10
2023-04-12T02:56:38.156Z,99.90
2023-04-12T02:59:04.949Z,99.90
2023-04-12T03:01:32.190Z,99.90
2023-04-12T03:03:59.139Z,99.90
2023-04-12T03:06:26.097Z,99.90
2023-04-12T03:08:52.840Z,99.90
2023-04-12T03:11:19.613Z,99.90
2023-04-12T03:13:46.539Z,99.90
2023-04-12T03:16:29.956Z,99.90
2023-04-12T03:18:56.974Z,99.90
2023-04-12T03:21:23.683Z,99.90
2023-04-12T03:23:51.252Z,1.00
2023-04-12T03:26:20.416Z,1.00
2023-04-12T03:28:47.971Z,1.00
2023-04-12T03:31:15.452Z,1.00
2023-04-12T03:33:42.290Z,1.00
2023-04-12T03:36:09.863Z,1.00
2023-04-12T03:38:36.670Z,1.00
2023-04-12T03:41:03.457Z,1.00
2023-04-12T03:43:35.929Z,1.00
2023-04-12T03:46:05.960Z,1.00
2023-04-12T03:48:32.716Z,1.00
2023-04-12T03:51:07.857Z,1.00
2023-04-12T03:53:34.838Z,1.00
2023-04-12T03:56:01.547Z,1.00
2023-04-12T03:58:28.297Z,1.00
2023-04-12T04:00:55.177Z,1.00
2023-04-12T04:03:26.807Z,1.00
2023-04-12T04:05:53.854Z,1.00
2023-04-12T04:08:20.943Z,1.00
2023-04-12T04:10:47.724Z,1.00
2023-04-12T04:13:14.448Z,1.00
2023-04-12T04:15:41.203Z,1.00
2023-04-12T04:18:07.928Z,1.00
2023-04-12T04:20:34.679Z,61.20
2023-04-12T04:23:01.435Z,99.90
2023-04-12T04:25:30.152Z,99.90
2023-04-12T04:27:59.587Z,99.90
2023-04-12T04:30:26.637Z,99.90
2023-04-12T04:32:53.651Z,99.90
2023-04-12T04:35:20.547Z,99.90
2023-04-12T04:37:47.656Z,99.90
2023-04-12T04:40:15.338Z,99.90
2023-04-12T04:42:43.197Z,1.00
2023-04-12T04:45:14.036Z,1.00
2023-04-12T04:47:40.998Z,1.00
2023-04-12T04:50:08.054Z,99.90
2023-04-12T04:52:34.823Z,99.90
2023-04-12T04:55:03.327Z,99.90
2023-04-12T04:57:31.593Z,99.90
2023-04-12T04:59:58.342Z,99.90
2023-04-12T05:02:26.091Z,99.90
2023-04-12T05:04:56.278Z,99.90
2023-04-12T05:07:23.692Z,99.90
2023-04-12T05:09:50.487Z,99.90
2023-04-12T05:12:17.244Z,99.90
2023-04-12T05:14:49.682Z,99.90
2023-04-12T05:17:18.569Z,99.90
2023-04-12T05:19:45.327Z,99.90
2023-04-12T05:22:13.049Z,99.90
2023-04-12T05:24:39.995Z,99.90
2023-04-12T05:27:07.008Z,99.90
2023-04-12T05:29:33.725Z,99.90
2023-04-12T05:32:00.478Z,99.90
2023-04-12T05:34:27.259Z,99.90
2023-04-12T05:36:54.026Z,99.90
2023-04-12T05:39:20.884Z,99.90
2023-04-12T05:41:47.680Z,99.90
2023-04-12T05:44:14.505Z,99.90
2023-04-12T05:46:41.394Z,99.90
2023-04-12T05:49:08.420Z,99.90
2023-04-12T05:51:41.266Z,99.90
2023-04-12T05:54:09.183Z,99.90
2023-04-12T05:56:36.278Z,99.90
2023-04-12T05:59:05.082Z,99.90
2023-04-12T06:01:32.953Z,99.90
2023-04-12T06:04:02.458Z,99.90
2023-04-12T06:06:30.299Z,99.90
2023-04-12T06:09:00.564Z,99.90
2023-04-12T06:11:27.501Z,99.90
2023-04-12T06:13:54.462Z,99.90
2023-04-12T06:16:21.271Z,99.90
2023-04-12T06:18:48.066Z,99.90
2023-04-12T06:21:14.817Z,99.90
2023-04-12T06:23:41.545Z,99.90
2023-04-12T06:26:08.383Z,99.90
2023-04-12T06:28:35.332Z,99.90
2023-04-12T06:31:02.090Z,99.90
2023-04-12T06:33:28.869Z,99.90
2023-04-12T06:35:56.002Z,99.90
2023-04-12T06:38:22.915Z,99.90
2023-04-12T06:40:49.726Z,99.90
2023-04-12T06:43:20.240Z,99.90
2023-04-12T06:45:47.018Z,95.90
2023-04-12T06:48:13.768Z,90.60
2023-04-12T06:50:40.589Z,9.70
2023-04-12T06:53:07.456Z,1.00
2023-04-12T06:55:34.585Z,1.00
2023-04-12T06:58:01.373Z,1.00
2023-04-12T07:00:28.131Z,1.00
2023-04-12T07:02:55.281Z,1.00
2023-04-12T07:05:22.439Z,99.90
2023-04-12T07:07:49.188Z,99.90
2023-04-12T07:10:16.128Z,99.90
2023-04-12T07:12:42.926Z,99.90
2023-04-12T07:15:10.020Z,99.90
2023-04-12T07:17:36.822Z,99.90
2023-04-12T07:20:04.149Z,99.90
2023-04-12T07:22:30.958Z,99.90
2023-04-12T07:24:57.791Z,99.90
2023-04-12T07:27:24.702Z,99.90
2023-04-12T07:29:53.273Z,1.00
2023-04-12T07:32:20.355Z,1.00
2023-04-12T07:34:47.370Z,1.00
2023-04-12T07:37:14.219Z,1.00
2023-04-12T07:39:41.376Z,1.00
2023-04-12T07:42:08.143Z,1.00
2023-04-12T07:44:37.127Z,1.00
2023-04-12T07:47:05.390Z,1.00
2023-04-12T07:49:32.142Z,1.00
2023-04-12T07:51:58.921Z,1.00
2023-04-12T07:54:28.047Z,1.00
2023-04-12T07:57:02.711Z,1.00
2023-04-12T07:59:31.074Z,1.00
2023-04-12T08:01:57.959Z,99.90
2023-04-12T08:04:24.962Z,1.00
2023-04-12T08:06:52.109Z,5.90
2023-04-12T08:09:18.853Z,1.00
2023-04-12T08:11:45.724Z,99.90
2023-04-12T08:14:12.554Z,1.00
2023-04-12T08:16:39.289Z,1.00
2023-04-12T08:19:06.103Z,1.00
2023-04-12T08:21:33.720Z,1.00
2023-04-12T08:24:00.676Z,1.00
2023-04-12T08:26:28.721Z,1.00
2023-04-12T08:28:57.659Z,1.00
2023-04-12T08:31:24.561Z,1.00
2023-04-12T08:33:51.578Z,62.30
2023-04-12T08:36:18.679Z,99.90
2023-04-12T08:38:46.620Z,1.00
2023-04-12T08:41:14.532Z,1.00
2023-04-12T08:43:45.416Z,1.00
2023-04-12T08:46:15.628Z,1.00
2023-04-12T08:48:48.030Z,1.00
2023-04-12T08:51:17.159Z,1.00
2023-04-12T08:53:44.391Z,1.00
2023-04-12T08:56:12.232Z,1.00
2023-04-12T08:58:40.723Z,1.00
2023-04-12T09:01:14.011Z,99.90
2023-04-12T09:03:42.034Z,99.90
2023-04-12T09:06:09.344Z,99.90
2023-04-12T09:08:36.901Z,99.90
2023-04-12T09:11:22.035Z,99.90
2023-04-12T09:13:48.840Z,12.60
2023-04-12T09:16:16.126Z,1.00
2023-04-12T09:18:51.736Z,1.00
2023-04-12T09:21:18.666Z,1.00
2023-04-12T09:24:12.296Z,1.00
2023-04-12T09:26:40.277Z,1.00
2023-04-12T09:29:23.125Z,1.00
2023-04-12T09:32:03.987Z,99.90
2023-04-12T09:34:31.971Z,99.90
2023-04-12T09:36:59.153Z,99.90
2023-04-12T09:39:33.537Z,99.90
2023-04-12T09:42:25.686Z,99.90
2023-04-12T09:44:58.575Z,99.90
2023-04-12T09:47:41.395Z,99.90
2023-04-12T09:50:09.865Z,99.90
2023-04-12T09:52:40.294Z,99.90
2023-04-12T09:55:09.916Z,35.00
2023-04-12T09:57:39.866Z,65.00
2023-04-12T10:00:12.679Z,1.00
2023-04-12T10:02:42.820Z,1.00
2023-04-12T10:05:13.426Z,1.00
2023-04-12T10:07:43.834Z,5.20
2023-04-12T10:10:15.986Z,99.90
2023-04-12T10:12:44.185Z,99.90
2023-04-12T10:15:17.652Z,62.50
2023-04-12T10:17:54.988Z,21.30
2023-04-12T10:20:24.866Z,79.30
2023-04-12T10:22:54.113Z,1.00
2023-04-12T10:25:23.033Z,1.00
2023-04-12T10:27:49.962Z,1.00
2023-04-12T10:30:25.919Z,1.00
2023-04-12T10:33:05.110Z,1.00
2023-04-12T10:36:03.579Z,1.00
2023-04-12T10:38:37.345Z,1.00
2023-04-12T10:41:14.096Z,1.00
2023-04-12T10:43:51.254Z,1.00
2023-04-12T10:46:39.902Z,1.00
2023-04-12T10:49:24.871Z,1.00
2023-04-12T10:52:00.973Z,1.00
2023-04-12T10:54:28.200Z,1.00
2023-04-12T10:56:55.099Z,1.00
2023-04-12T10:59:21.827Z,1.00
2023-04-12T11:02:12.255Z,1.00
2023-04-12T11:05:10.260Z,99.90
2023-04-12T11:07:44.568Z,99.90
2023-04-12T11:10:16.373Z,1.00
2023-04-12T11:13:09.323Z,1.00
2023-04-12T11:15:38.704Z,99.90
2023-04-12T11:18:06.198Z,99.90
2023-04-12T11:20:33.639Z,99.90
2023-04-12T11:23:00.847Z,1.00
2023-04-12T11:25:29.119Z,1.00
2023-04-12T11:27:56.423Z,1.00
2023-04-12T11:30:25.036Z,7.70
2023-04-12T11:32:52.244Z,23.30
2023-04-12T11:35:24.305Z,12.80
2023-04-12T11:37:51.321Z,1.00
2023-04-12T11:40:18.112Z,48.10
2023-04-12T11:42:44.898Z,99.90
2023-04-12T11:45:17.097Z,6.30
2023-04-12T11:47:46.155Z,1.00
2023-04-12T11:50:13.241Z,32.20
2023-04-12T11:52:41.245Z,22.10
2023-04-12T11:55:11.106Z,1.00
2023-04-12T11:57:39.060Z,36.80
2023-04-12T12:00:07.014Z,17.40
2023-04-12T12:02:41.271Z,68.30
2023-04-12T12:05:13.421Z,63.00
2023-04-12T12:07:40.567Z,28.30
2023-04-12T12:10:08.051Z,1.00
2023-04-12T12:12:35.229Z,1.00
2023-04-12T12:15:02.358Z,1.00
2023-04-12T12:17:29.308Z,1.00
2023-04-12T12:19:58.950Z,1.00
2023-04-12T12:22:25.743Z,1.00
2023-04-12T12:24:55.713Z,1.00
2023-04-12T12:27:30.416Z,1.00
2023-04-12T12:30:01.542Z,1.00
2023-04-12T12:32:37.025Z,1.00
2023-04-12T12:35:09.353Z,99.90
2023-04-12T12:37:36.407Z,99.90
2023-04-12T12:40:13.458Z,99.90
2023-04-12T12:42:57.298Z,99.90
2023-04-12T12:45:26.273Z,99.90
2023-04-12T12:47:54.010Z,99.90
2023-04-12T12:50:25.278Z,99.90
2023-04-12T12:52:52.608Z,1.00
2023-04-12T12:55:21.688Z,1.00
2023-04-12T12:58:02.215Z,99.90
2023-04-12T13:00:34.022Z,99.90
2023-04-12T13:03:01.034Z,99.90
2023-04-12T13:05:28.176Z,43.60
2023-04-12T13:07:54.957Z,51.90
2023-04-12T13:10:21.746Z,99.90
2023-04-12T13:12:48.467Z,99.90
2023-04-12T13:17:45.087Z,99.90
2023-04-12T13:20:11.992Z,99.90
2023-04-12T13:22:38.886Z,99.90
2023-04-12T13:25:06.936Z,99.90
2023-04-12T13:27:33.699Z,1.00
2023-04-12T13:30:00.843Z,1.00
2023-04-12T13:32:27.698Z,1.00
2023-04-12T13:34:54.701Z,1.00
2023-04-12T13:37:21.429Z,1.00
2023-04-12T13:39:48.188Z,1.00
2023-04-12T13:42:14.938Z,1.00
2023-04-12T13:44:41.729Z,1.00
2023-04-12T13:47:08.765Z,1.00
2023-04-12T13:49:35.928Z,1.00
2023-04-12T13:52:03.183Z,1.00
2023-04-12T13:54:30.767Z,1.00
2023-04-12T13:56:58.350Z,1.00
2023-04-12T13:59:28.250Z,1.00
2023-04-12T14:01:55.097Z,99.90
2023-04-12T14:04:22.195Z,99.90
2023-04-12T14:06:49.535Z,99.90
2023-04-12T14:09:27.450Z,99.90
2023-04-12T14:11:56.039Z,99.90
2023-04-12T14:14:23.144Z,99.90
2023-04-12T14:16:57.268Z,99.90
2023-04-12T14:19:24.257Z,99.90
2023-04-12T14:21:51.715Z,99.90
2023-04-12T14:24:19.249Z,99.90
2023-04-12T14:26:46.398Z,99.90
2023-04-12T14:29:13.643Z,99.90
2023-04-12T14:31:40.633Z,99.90
2023-04-12T14:34:08.788Z,99.90
2023-04-12T14:36:35.966Z,99.90
2023-04-12T14:39:04.098Z,99.90
2023-04-12T14:41:31.657Z,99.90
2023-04-12T14:44:01.622Z,99.90
2023-04-12T14:46:28.702Z,99.90
2023-04-12T14:48:57.339Z,99.90
2023-04-12T14:51:24.386Z,99.90
2023-04-12T14:53:51.392Z,99.90
2023-04-12T14:56:24.529Z,99.90
2023-04-12T14:58:55.697Z,99.90
2023-04-12T15:01:23.741Z,99.90
2023-04-12T15:03:52.188Z,67.80
2023-04-12T15:06:21.060Z,78.70
2023-04-12T15:08:49.533Z,37.90
2023-04-12T15:11:19.182Z,57.30
2023-04-12T15:13:46.055Z,61.20
2023-04-12T15:16:12.935Z,50.10
2023-04-12T15:18:41.603Z,45.20
2023-04-12T15:21:09.377Z,25.50
2023-04-12T15:23:36.683Z,31.40
2023-04-12T15:26:03.680Z,42.20
2023-04-12T15:28:31.961Z,34.00
2023-04-12T15:30:58.882Z,40.90
2023-04-12T15:33:25.974Z,37.40
2023-04-12T15:35:56.431Z,34.80
2023-04-12T15:38:26.293Z,33.50
2023-04-12T15:40:57.930Z,34.00
2023-04-12T15:43:25.605Z,63.30
2023-04-12T15:45:55.644Z,32.80
2023-04-12T15:48:23.593Z,14.70
2023-04-12T15:50:51.781Z,8.00
2023-04-12T15:53:20.549Z,22.20
2023-04-12T15:55:47.677Z,11.70
2023-04-12T15:58:14.746Z,1.00
2023-04-12T16:00:42.401Z,1.00
2023-04-12T16:03:09.980Z,1.00
2023-04-12T16:05:36.995Z,1.00
2023-04-12T16:08:04.074Z,1.00
2023-04-12T16:10:31.016Z,1.00
2023-04-12T16:12:57.934Z,1.00
2023-04-12T16:15:24.787Z,1.00
2023-04-12T16:17:55.713Z,1.00
2023-04-12T16:20:23.632Z,1.00
2023-04-12T16:22:55.783Z,1.00
2023-04-12T16:25:24.356Z,1.00
2023-04-12T16:27:51.717Z,1.00
2023-04-12T16:30:18.657Z,1.00
2023-04-12T16:32:46.782Z,1.00
2023-04-12T16:35:15.055Z,1.00
2023-04-12T16:37:42.681Z,1.00
2023-04-12T16:40:13.021Z,1.00
2023-04-12T16:42:40.996Z,1.00
2023-04-12T16:45:08.989Z,1.00
2023-04-12T16:47:36.791Z,1.00
2023-04-12T16:50:04.413Z,1.00
2023-04-12T16:52:31.876Z,1.00
2023-04-12T16:54:58.759Z,1.00
2023-04-12T16:57:25.503Z,1.00
2023-04-12T16:59:52.314Z,1.00
2023-04-12T17:02:19.290Z,1.00
2023-04-12T17:04:46.264Z,1.00
2023-04-12T17:07:13.098Z,1.00
2023-04-12T17:09:39.896Z,1.00
2023-04-12T17:12:06.853Z,1.00
2023-04-12T17:14:33.648Z,1.00
2023-04-12T17:17:00.467Z,1.00
2023-04-12T17:19:27.225Z,1.00
2023-04-12T17:21:54.638Z,1.00
2023-04-12T17:24:22.777Z,1.00
2023-04-12T17:26:49.710Z,1.00
2023-04-12T17:29:16.632Z,1.00
2023-04-12T17:31:43.757Z,1.00
2023-04-12T17:34:10.585Z,1.00
2023-04-12T17:36:38.199Z,1.00
2023-04-12T17:39:05.024Z,1.00
2023-04-12T17:41:31.887Z,1.00
2023-04-12T17:43:59.310Z,1.00
2023-04-12T17:46:26.459Z,1.00
2023-04-12T17:48:53.342Z,1.00
2023-04-12T17:51:20.560Z,1.00
2023-04-12T17:53:47.414Z,1.00
2023-04-12T17:56:14.528Z,1.00
2023-04-12T17:58:43.214Z,1.00
2023-04-12T18:01:09.993Z,1.00
2023-04-12T18:03:37.041Z,1.00
2023-04-12T18:06:04.275Z,1.00
2023-04-12T18:08:31.212Z,1.00
2023-04-12T18:10:57.992Z,1.00
2023-04-12T18:13:24.840Z,1.00
2023-04-12T18:15:51.869Z,1.00
2023-04-12T18:18:18.685Z,1.00
2023-04-12T18:20:45.704Z,1.00
2023-04-12T18:23:12.529Z,1.00
2023-04-12T18:25:39.351Z,1.00
2023-04-12T18:28:06.950Z,1.00
2023-04-12T18:30:34.113Z,1.00
2023-04-12T18:33:03.423Z,1.00
2023-04-12T18:35:31.493Z,1.00
2023-04-12T18:37:58.334Z,1.00
2023-04-12T18:40:25.359Z,1.00
2023-04-12T18:42:52.546Z,1.00
2023-04-12T18:45:20.006Z,1.00
2023-04-12T18:47:46.906Z,1.00
2023-04-12T18:50:14.555Z,1.00
2023-04-12T18:52:41.394Z,1.00
2023-04-12T18:55:08.456Z,1.00
2023-04-12T18:57:35.403Z,1.00
2023-04-12T19:00:05.542Z,1.00
2023-04-12T19:02:34.267Z,1.00
2023-04-12T19:05:02.820Z,1.00
2023-04-12T19:07:29.627Z,1.00
2023-04-12T19:09:56.506Z,1.00
2023-04-12T19:12:23.319Z,1.00
2023-04-12T19:14:50.124Z,1.00
2023-04-12T19:17:16.868Z,1.00
2023-04-12T19:19:43.640Z,1.00
2023-04-12T19:22:10.983Z,1.00
2023-04-12T19:24:37.831Z,1.40
2023-04-12T19:27:04.604Z,4.10
2023-04-12T19:29:31.409Z,1.90
2023-04-12T19:32:00.700Z,1.80
2023-04-12T19:34:27.610Z,2.00
2023-04-12T19:36:54.490Z,1.00
2023-04-12T19:39:22.794Z,1.00
2023-04-12T19:41:49.857Z,1.00
2023-04-12T19:44:16.702Z,1.00
2023-04-12T19:46:43.560Z,1.00
2023-04-12T19:49:10.483Z,1.00
2023-04-12T19:51:37.885Z,1.00
2023-04-12T19:54:04.854Z,1.00
2023-04-12T19:56:31.731Z,1.00
2023-04-12T19:58:58.788Z,1.00
2023-04-12T20:01:26.824Z,1.00
2023-04-12T20:03:53.752Z,1.00
2023-04-12T20:06:20.628Z,1.00
2023-04-12T20:08:47.378Z,1.00
2023-04-12T20:11:14.115Z,1.00
2023-04-12T20:13:41.033Z,1.00
2023-04-12T20:16:09.956Z,1.00
2023-04-12T20:18:36.947Z,1.00
2023-04-12T20:21:05.961Z,1.00
2023-04-12T20:23:32.684Z,1.00
2023-04-12T20:26:00.215Z,1.00
2023-04-12T20:28:27.152Z,1.00
2023-04-12T20:30:54.005Z,1.00
2023-04-12T20:33:20.908Z,1.00
2023-04-12T20:35:49.850Z,1.00
2023-04-12T20:38:16.872Z,1.00
2023-04-12T20:40:45.047Z,1.00
2023-04-12T20:43:12.083Z,18.10
2023-04-12T20:45:39.117Z,68.30
2023-04-12T20:48:06.012Z,99.90
2023-04-12T20:50:33.023Z,99.90
2023-04-12T20:52:59.803Z,99.90
2023-04-12T20:55:32.777Z,1.00
2023-04-12T20:58:00.700Z,1.00
2023-04-12T21:00:29.513Z,1.00
2023-04-12T21:02:58.364Z,1.00
2023-04-12T21:05:27.284Z,1.00
2023-04-12T21:07:54.805Z,1.00
2023-04-12T21:10:22.321Z,1.00
2023-04-12T21:12:50.066Z,1.00
2023-04-12T21:15:21.771Z,1.00
2023-04-12T21:17:50.713Z,1.00
2023-04-12T21:20:18.042Z,1.00
2023-04-12T21:22:47.004Z,1.00
2023-04-12T21:25:16.634Z,1.00
2023-04-12T21:27:45.700Z,1.00
2023-04-12T21:30:13.539Z,1.00
2023-04-12T21:32:41.225Z,1.00
2023-04-12T21:35:08.430Z,1.00
2023-04-12T21:37:37.991Z,1.00
2023-04-12T21:40:12.898Z,1.00
2023-04-12T21:42:40.388Z,1.00
2023-04-12T21:45:09.467Z,1.00
2023-04-12T21:47:36.782Z,1.00
2023-04-12T21:50:04.429Z,1.00
2023-04-12T21:52:31.184Z,1.00
2023-04-12T21:54:57.931Z,1.00
2023-04-12T21:57:24.736Z,1.00
2023-04-12T21:59:51.586Z,1.00
2023-04-12T22:02:18.459Z,1.00
2023-04-12T22:04:45.419Z,1.00
2023-04-12T22:07:12.660Z,1.00
2023-04-12T22:09:40.170Z,1.00
2023-04-12T22:12:07.307Z,1.00
2023-04-12T22:14:37.182Z,1.00
2023-04-12T22:17:05.881Z,1.00
2023-04-12T22:19:32.809Z,1.00
2023-04-12T22:21:59.729Z,1.00
2023-04-12T22:24:26.531Z,1.00
2023-04-12T22:26:57.451Z,20.50
2023-04-12T22:29:25.320Z,99.90
2023-04-12T22:31:52.663Z,99.90
2023-04-12T22:34:19.510Z,99.90
2023-04-12T22:36:51.716Z,1.00
2023-04-12T22:39:19.167Z,1.00
2023-04-12T22:41:49.374Z,1.00
2023-04-12T22:44:22.754Z,1.00
2023-04-12T22:46:50.990Z,1.00
2023-04-12T22:49:18.449Z,1.00
2023-04-12T22:51:45.483Z,1.00
2023-04-12T22:54:12.464Z,1.00
2023-04-12T22:56:45.260Z,1.00
2023-04-12T22:59:16.550Z,1.00
2023-04-12T23:01:45.279Z,17.60
2023-04-12T23:04:13.242Z,99.90
2023-04-12T23:06:41.630Z,99.90
2023-04-12T23:09:09.715Z,99.90
2023-04-12T23:11:38.339Z,99.90
2023-04-12T23:14:06.165Z,99.90
2023-04-12T23:16:33.891Z,99.90
2023-04-12T23:19:01.726Z,99.90
2023-04-12T23:21:30.259Z,99.90
2023-04-12T23:23:57.265Z,99.90
2023-04-12T23:26:24.646Z,99.90
2023-04-12T23:28:52.075Z,99.90
2023-04-12T23:31:18.937Z,99.90
2023-04-12T23:33:46.051Z,1.00
2023-04-12T23:36:13.297Z,1.00
2023-04-12T23:38:40.677Z,1.00
2023-04-12T23:41:10.132Z,1.00
2023-04-12T23:43:37.957Z,30.60
2023-04-12T23:46:05.210Z,99.90
2023-04-12T23:48:32.359Z,99.90
2023-04-12T23:50:59.843Z,30.70
2023-04-12T23:53:26.645Z,64.80
2023-04-12T23:55:53.638Z,92.60
2023-04-12T23:58:21.472Z,99.90
